Pagrindinis puslapis
METAR-TAF:

METAR-TAF

Oro uostai :

Palestine Municipal Airport

Palestine, Teksasas, Jungtinės Amerikos Valstijos

platuma: 31-46-46N, ilguma: 095-42-22W, Aukštis: 129 m

Dabartinis oras

Ataskaita buvo paskelbta 17 minutes, ne 03:35 UTC
Vėjas 7 kt iš Pietų/Pietryčių, svyruoja nuo Pietryčių ir Pietų/Pietvakarių
Temperatūra 28°C
Drėgmė 89%
Slėgis 1014 hPa
Matomumas: 16.1 km
Išsisklaidę debesys ne aukštis 3700 ft
Su prošvaistėmis ne aukštis 4200 ft
Su prošvaistėmis ne aukštis 4900 ft

METAR: KPSN 250335Z AUTO 15007KT 130V200 10SM SCT037 BKN042 BKN049 28/26 A2995 RMK AO2

Laikas: 22:52 (03:52 UTC)


TAF: trūkstamas

Orai ataskaitas ir orų prognozės (METAR, TAF).

turimą stotys yra geltonos ir raudonos taškus žemėlapyje.

Perkelti pele per norėdami pamatyti stoties vardą.

Tada spustelėkite, norėdami matyti oro stebėjimo ir prognozės.

Norėdami pakeisti žemėlapį: spustelėkite ant žalios mygtukų su juodo kryžiaus žemyn,; žalią mygtuką su brūkšneliu, jei norite nutolinti; arba žalių rodyklių gretimoms žemėlapius.


METAR-TAF: